createdAt,value
2022-10-21T00:00:22.258Z,11.90
2022-10-21T00:02:49.676Z,11.53
2022-10-21T00:05:17.070Z,9.27
2022-10-21T00:07:44.476Z,10.10
2022-10-21T00:10:12.061Z,11.73
2022-10-21T00:12:40.036Z,9.70
2022-10-21T00:15:09.099Z,8.70
2022-10-21T00:17:37.562Z,9.27
2022-10-21T00:20:09.422Z,9.97
2022-10-21T00:22:37.152Z,8.90
2022-10-21T00:25:04.820Z,10.40
2022-10-21T00:27:32.203Z,10.40
2022-10-21T00:30:00.605Z,11.33
2022-10-21T00:32:27.962Z,10.27
2022-10-21T00:34:55.303Z,10.60
2022-10-21T00:37:22.696Z,11.03
2022-10-21T00:39:50.055Z,11.77
2022-10-21T00:42:18.886Z,9.57
2022-10-21T00:45:02.320Z,10.47
2022-10-21T00:47:30.069Z,9.23
2022-10-21T00:50:04.528Z,10.27
2022-10-21T00:52:34.507Z,9.40
2022-10-21T00:55:03.299Z,9.83
2022-10-21T00:57:33.020Z,12.43
2022-10-21T01:00:02.001Z,10.67
2022-10-21T01:02:30.055Z,10.90
2022-10-21T01:05:00.150Z,11.50
2022-10-21T01:07:27.739Z,10.37
2022-10-21T01:09:55.068Z,13.07
2022-10-21T01:12:36.040Z,10.33
2022-10-21T01:15:23.647Z,12.93
2022-10-21T01:17:55.943Z,9.83
2022-10-21T01:20:26.280Z,9.53
2022-10-21T01:23:12.477Z,12.17
2022-10-21T01:26:02.884Z,9.80
2022-10-21T01:28:49.366Z,9.80
2022-10-21T01:31:23.585Z,10.97
2022-10-21T01:33:57.072Z,10.23
2022-10-21T01:36:28.490Z,10.80
2022-10-21T01:38:55.863Z,10.50
2022-10-21T01:41:26.423Z,9.80
2022-10-21T01:43:56.713Z,10.90
2022-10-21T01:46:28.841Z,10.60
2022-10-21T01:48:58.871Z,10.60
2022-10-21T01:51:27.749Z,10.07
2022-10-21T01:54:07.580Z,11.13
2022-10-21T01:56:36.130Z,9.10
2022-10-21T01:59:04.625Z,11.73
2022-10-21T02:01:33.200Z,11.53
2022-10-21T02:04:02.501Z,12.67
2022-10-21T02:06:29.882Z,10.27
2022-10-21T02:08:57.295Z,12.07
2022-10-21T02:11:24.913Z,11.13
2022-10-21T02:13:55.147Z,10.47
2022-10-21T02:16:25.036Z,9.53
2022-10-21T02:18:52.463Z,9.67
2022-10-21T02:21:21.807Z,9.57
2022-10-21T02:23:58.165Z,11.50
2022-10-21T02:26:26.888Z,12.20
2022-10-21T02:28:55.608Z,10.63
2022-10-21T02:31:23.022Z,9.10
2022-10-21T02:33:53.411Z,9.93
2022-10-21T02:36:31.395Z,10.83
2022-10-21T02:39:01.310Z,10.10
2022-10-21T02:41:29.688Z,12.47
2022-10-21T02:44:01.865Z,10.93
2022-10-21T02:46:37.605Z,11.30
2022-10-21T02:49:05.023Z,10.77
2022-10-21T02:51:32.611Z,11.47
2022-10-21T02:54:00.025Z,12.57
2022-10-21T02:56:27.512Z,11.07
2022-10-21T02:58:55.066Z,8.30
2022-10-21T03:01:22.441Z,10.60
2022-10-21T03:03:49.764Z,10.87
2022-10-21T03:06:17.172Z,9.20
2022-10-21T03:08:44.562Z,9.80
2022-10-21T03:11:11.944Z,10.87
2022-10-21T03:13:39.304Z,10.80
2022-10-21T03:16:06.934Z,9.67
2022-10-21T03:18:34.367Z,12.33
2022-10-21T03:21:01.681Z,9.87
2022-10-21T03:23:29.032Z,9.83
2022-10-21T03:25:56.379Z,10.50
2022-10-21T03:28:23.802Z,11.60
2022-10-21T03:30:51.218Z,9.97
2022-10-21T03:33:18.580Z,10.83
2022-10-21T03:35:45.933Z,9.83
2022-10-21T03:38:13.279Z,9.87
2022-10-21T03:40:40.568Z,10.13
2022-10-21T03:43:07.937Z,9.43
2022-10-21T03:45:35.276Z,10.07
2022-10-21T03:48:02.800Z,11.60
2022-10-21T03:50:33.538Z,10.13
2022-10-21T03:53:02.380Z,10.43
2022-10-21T03:55:34.157Z,8.93
2022-10-21T03:58:01.696Z,10.23
2022-10-21T04:00:31.594Z,11.77
2022-10-21T04:02:59.191Z,11.70
2022-10-21T04:05:26.547Z,10.73
2022-10-21T04:07:53.902Z,9.93
2022-10-21T04:10:21.394Z,9.97
2022-10-21T04:12:48.761Z,10.20
2022-10-21T04:15:16.123Z,10.90
2022-10-21T04:17:46.016Z,11.60
2022-10-21T04:20:13.383Z,12.77
2022-10-21T04:22:40.980Z,8.80
2022-10-21T04:25:08.710Z,9.27
2022-10-21T04:27:36.069Z,9.70
2022-10-21T04:30:03.687Z,10.83
2022-10-21T04:32:31.215Z,9.30
2022-10-21T04:34:58.571Z,9.93
2022-10-21T04:37:25.878Z,11.63
2022-10-21T04:39:53.280Z,9.63
2022-10-21T04:42:20.658Z,11.50
2022-10-21T04:44:48.043Z,11.00
2022-10-21T04:47:15.564Z,14.23
2022-10-21T04:49:42.941Z,9.60
2022-10-21T04:52:10.261Z,10.87
2022-10-21T04:54:37.649Z,10.90
2022-10-21T04:57:04.969Z,9.87
2022-10-21T04:59:32.404Z,10.07
2022-10-21T05:04:27.079Z,9.27
2022-10-21T05:06:54.463Z,9.73
2022-10-21T05:09:21.933Z,11.67
2022-10-21T05:11:49.298Z,9.73
2022-10-21T05:14:20.036Z,10.43
2022-10-21T05:16:50.007Z,11.30
2022-10-21T05:19:17.341Z,11.27
2022-10-21T05:21:46.639Z,12.57
2022-10-21T05:24:14.902Z,10.90
2022-10-21T05:26:42.287Z,10.87
2022-10-21T05:29:09.778Z,9.93
2022-10-21T05:31:37.197Z,11.43
2022-10-21T05:34:04.576Z,11.50
2022-10-21T05:36:31.971Z,10.97
2022-10-21T05:38:59.354Z,10.60
2022-10-21T05:41:26.881Z,12.83
2022-10-21T05:43:54.259Z,11.73
2022-10-21T05:46:21.668Z,10.67
2022-10-21T05:51:26.611Z,10.20
2022-10-21T05:53:54.412Z,9.90
2022-10-21T05:56:21.768Z,10.97
2022-10-21T05:58:49.287Z,9.30
2022-10-21T06:01:16.617Z,9.27
2022-10-21T06:03:44.060Z,12.80
2022-10-21T06:06:11.474Z,10.37
2022-10-21T06:08:39.496Z,9.27
2022-10-21T06:11:08.473Z,9.70
2022-10-21T06:13:36.389Z,10.50
2022-10-21T06:18:36.760Z,9.80
2022-10-21T06:21:04.323Z,10.13
2022-10-21T06:23:32.022Z,12.03
2022-10-21T06:26:00.466Z,12.63
2022-10-21T06:28:28.421Z,10.70
2022-10-21T06:30:56.090Z,11.37
2022-10-21T06:33:26.841Z,9.60
2022-10-21T06:35:55.644Z,11.10
2022-10-21T06:38:23.801Z,10.03
2022-10-21T06:40:51.115Z,10.40
2022-10-21T06:43:18.562Z,10.67
2022-10-21T06:45:46.025Z,12.67
2022-10-21T06:48:13.856Z,11.17
2022-10-21T06:50:41.353Z,10.53
2022-10-21T06:53:08.698Z,12.60
2022-10-21T06:55:36.059Z,10.27
2022-10-21T06:58:03.454Z,12.40
2022-10-21T07:03:02.980Z,11.53
2022-10-21T07:05:30.294Z,10.73
2022-10-21T07:07:57.699Z,12.33
2022-10-21T07:10:25.155Z,14.93
2022-10-21T07:12:55.319Z,15.10
2022-10-21T07:15:22.705Z,11.90
2022-10-21T07:17:50.021Z,12.60
2022-10-21T07:20:17.392Z,14.13
2022-10-21T07:22:44.739Z,12.20
2022-10-21T07:25:13.725Z,14.60
2022-10-21T07:27:43.430Z,12.27
2022-10-21T07:30:13.487Z,12.30
2022-10-21T07:32:40.894Z,11.53
2022-10-21T07:35:08.449Z,12.47
2022-10-21T07:37:36.157Z,11.57
2022-10-21T07:40:05.649Z,12.47
2022-10-21T07:42:33.007Z,13.37
2022-10-21T07:45:01.762Z,12.53
2022-10-21T07:47:29.254Z,12.87
2022-10-21T07:49:57.704Z,12.80
2022-10-21T07:52:25.107Z,12.10
2022-10-21T07:54:52.506Z,17.13
2022-10-21T07:57:19.850Z,13.67
2022-10-21T07:59:47.177Z,11.80
2022-10-21T08:02:15.276Z,13.13
2022-10-21T08:04:42.729Z,14.47
2022-10-21T08:07:13.106Z,13.53
2022-10-21T08:09:41.379Z,15.20
2022-10-21T08:12:10.490Z,11.90
2022-10-21T08:14:40.819Z,12.77
2022-10-21T08:17:08.166Z,12.20
2022-10-21T08:19:35.607Z,15.37
2022-10-21T08:22:03.106Z,15.10
2022-10-21T08:24:30.421Z,13.30
2022-10-21T08:26:57.791Z,15.77
2022-10-21T08:29:25.489Z,15.07
2022-10-21T08:31:52.914Z,14.13
2022-10-21T08:34:20.358Z,13.03
2022-10-21T08:36:47.921Z,13.10
2022-10-21T08:39:15.603Z,14.63
2022-10-21T08:41:49.314Z,16.47
2022-10-21T08:44:19.731Z,13.10
2022-10-21T08:46:50.323Z,15.17
2022-10-21T08:49:25.189Z,14.97
2022-10-21T08:52:13.544Z,14.67
2022-10-21T08:54:40.831Z,14.37
2022-10-21T08:57:12.265Z,14.70
2022-10-21T08:59:42.221Z,12.87
2022-10-21T09:02:18.818Z,13.83
2022-10-21T09:05:01.324Z,14.40
2022-10-21T09:07:34.432Z,14.83
2022-10-21T09:10:03.319Z,15.57
2022-10-21T09:12:41.917Z,13.83
2022-10-21T09:15:44.817Z,14.27
2022-10-21T09:18:12.161Z,14.83
2022-10-21T09:21:05.872Z,13.50
2022-10-21T09:23:48.794Z,13.13
2022-10-21T09:26:34.942Z,15.30
2022-10-21T09:29:09.328Z,13.33
2022-10-21T09:31:36.689Z,12.50
2022-10-21T09:34:04.572Z,13.03
2022-10-21T09:36:39.572Z,13.33
2022-10-21T09:39:19.271Z,14.33
2022-10-21T09:41:50.049Z,14.13
2022-10-21T09:44:18.740Z,12.67
2022-10-21T09:46:46.855Z,14.87
2022-10-21T09:49:54.680Z,14.37
2022-10-21T09:52:18.209Z,15.20
2022-10-21T09:54:46.039Z,13.17
2022-10-21T09:57:19.654Z,13.27
2022-10-21T09:59:52.982Z,15.43
2022-10-21T10:02:25.314Z,13.13
2022-10-21T10:04:52.719Z,14.93
2022-10-21T10:07:21.595Z,12.27
2022-10-21T10:09:49.460Z,13.33
2022-10-21T10:12:21.142Z,12.97
2022-10-21T10:14:48.757Z,14.13
2022-10-21T10:17:22.298Z,12.53
2022-10-21T10:20:09.175Z,14.70
2022-10-21T10:22:38.006Z,13.60
2022-10-21T10:25:24.353Z,14.60
2022-10-21T10:27:56.511Z,14.10
2022-10-21T10:30:25.077Z,12.30
2022-10-21T10:32:53.103Z,13.47
2022-10-21T10:35:30.456Z,14.83
2022-10-21T10:37:59.158Z,14.00
2022-10-21T10:40:38.862Z,13.40
2022-10-21T10:43:15.255Z,15.43
2022-10-21T10:45:56.958Z,17.90
2022-10-21T10:48:28.874Z,13.17
2022-10-21T10:50:58.147Z,11.60
2022-10-21T10:53:36.626Z,14.23
2022-10-21T10:56:19.603Z,14.57
2022-10-21T10:58:54.699Z,13.73
2022-10-21T11:01:27.927Z,14.93
2022-10-21T11:03:58.196Z,12.80
2022-10-21T11:06:34.373Z,13.03
2022-10-21T11:09:02.143Z,18.70
2022-10-21T11:11:31.957Z,13.43
2022-10-21T11:16:44.933Z,13.43
2022-10-21T11:19:35.025Z,13.73
2022-10-21T11:22:08.275Z,13.67
2022-10-21T11:24:35.799Z,14.43
2022-10-21T11:27:22.108Z,15.60
2022-10-21T11:29:49.453Z,15.13
2022-10-21T11:32:35.759Z,14.20
2022-10-21T11:35:21.524Z,13.30
2022-10-21T11:38:04.414Z,14.20
2022-10-21T11:40:49.992Z,12.10
2022-10-21T11:43:19.262Z,15.17
2022-10-21T11:45:46.631Z,12.87
2022-10-21T11:48:21.079Z,14.87
2022-10-21T11:50:58.272Z,14.70
2022-10-21T11:53:33.115Z,15.20
2022-10-21T11:56:19.292Z,15.03
2022-10-21T11:58:46.664Z,15.53
2022-10-21T12:01:16.776Z,14.77
2022-10-21T12:04:04.353Z,16.00
2022-10-21T12:06:34.954Z,16.70
2022-10-21T12:09:03.891Z,13.93
2022-10-21T12:11:42.303Z,15.07
2022-10-21T12:14:18.687Z,15.77
2022-10-21T12:16:46.649Z,15.27
2022-10-21T12:19:14.713Z,17.13
2022-10-21T12:21:44.596Z,14.90
2022-10-21T12:24:11.927Z,17.67
2022-10-21T12:26:43.045Z,17.27
2022-10-21T12:29:18.501Z,15.07
2022-10-21T12:31:49.909Z,14.37
2022-10-21T12:34:17.375Z,14.60
2022-10-21T12:36:54.140Z,14.57
2022-10-21T12:39:33.652Z,14.37
2022-10-21T12:42:07.210Z,14.43
2022-10-21T12:44:34.711Z,17.20
2022-10-21T12:47:03.705Z,14.33
2022-10-21T12:49:35.993Z,15.17
2022-10-21T12:52:03.973Z,13.30
2022-10-21T12:54:32.450Z,15.20
2022-10-21T12:57:10.826Z,13.90
2022-10-21T12:59:42.192Z,14.77
2022-10-21T13:02:23.297Z,13.77
2022-10-21T13:04:54.957Z,14.43
2022-10-21T13:07:22.265Z,14.23
2022-10-21T13:09:52.589Z,13.90
2022-10-21T13:12:25.662Z,14.07
2022-10-21T13:14:54.594Z,12.43
2022-10-21T13:17:21.941Z,14.73
2022-10-21T13:19:50.166Z,15.00
2022-10-21T13:22:23.576Z,16.87
2022-10-21T13:24:50.988Z,14.43
2022-10-21T13:27:24.645Z,15.20
2022-10-21T13:29:52.340Z,18.17
2022-10-21T13:32:27.537Z,16.40
2022-10-21T13:35:14.258Z,11.90
2022-10-21T13:37:51.473Z,16.60
2022-10-21T13:40:20.326Z,13.43
2022-10-21T13:42:50.197Z,16.80
2022-10-21T13:45:50.028Z,15.53
2022-10-21T13:48:18.924Z,14.73
2022-10-21T13:50:47.597Z,13.97
2022-10-21T13:53:36.427Z,15.27
2022-10-21T13:56:08.608Z,17.10
2022-10-21T13:58:39.427Z,15.87
2022-10-21T14:01:15.007Z,13.33
2022-10-21T14:03:42.553Z,15.03
2022-10-21T14:06:10.788Z,15.13
2022-10-21T14:08:42.999Z,15.33
2022-10-21T14:11:13.535Z,15.10
2022-10-21T14:13:41.018Z,17.70
2022-10-21T14:16:09.647Z,16.07
2022-10-21T14:18:38.095Z,13.83
2022-10-21T14:21:06.345Z,16.97
2022-10-21T14:23:34.576Z,16.77
2022-10-21T14:26:09.135Z,16.73
2022-10-21T14:28:37.580Z,15.03
2022-10-21T14:31:11.750Z,14.40
2022-10-21T14:33:41.806Z,14.37
2022-10-21T14:36:11.373Z,14.53
2022-10-21T14:38:51.888Z,15.93
2022-10-21T14:41:22.683Z,14.33
2022-10-21T14:43:50.875Z,15.07
2022-10-21T14:46:18.502Z,14.90
2022-10-21T14:48:54.618Z,16.17
2022-10-21T14:51:22.919Z,16.13
2022-10-21T14:53:53.259Z,14.87
2022-10-21T14:56:23.067Z,15.63
2022-10-21T14:58:55.859Z,15.57
2022-10-21T15:01:23.774Z,12.87
2022-10-21T15:03:54.190Z,11.00
2022-10-21T15:06:29.158Z,13.43
2022-10-21T15:08:56.725Z,16.63
2022-10-21T15:11:28.918Z,15.20
2022-10-21T15:14:16.615Z,12.63
2022-10-21T15:16:50.225Z,22.07
2022-10-21T15:19:23.770Z,16.10
2022-10-21T15:22:04.018Z,15.00
2022-10-21T15:24:36.453Z,12.13
2022-10-21T15:27:04.407Z,12.30
2022-10-21T15:29:36.792Z,12.77
2022-10-21T15:32:04.854Z,13.20
2022-10-21T15:34:32.307Z,16.07
2022-10-21T15:36:59.752Z,14.27
2022-10-21T15:39:27.205Z,12.00
2022-10-21T15:41:57.340Z,12.13
2022-10-21T15:44:28.921Z,13.90
2022-10-21T15:47:01.015Z,11.20
2022-10-21T15:49:32.846Z,12.60
2022-10-21T15:52:00.356Z,13.77
2022-10-21T15:54:27.892Z,12.90
2022-10-21T15:56:55.837Z,10.67
2022-10-21T15:59:27.368Z,11.70
2022-10-21T16:01:55.014Z,17.57
2022-10-21T16:04:22.824Z,14.80
2022-10-21T16:06:50.896Z,10.30
2022-10-21T16:09:21.002Z,11.77
2022-10-21T16:11:59.551Z,10.53
2022-10-21T16:14:29.462Z,14.67
2022-10-21T16:17:00.818Z,18.90
2022-10-21T16:19:28.926Z,13.53
2022-10-21T16:21:56.489Z,11.40
2022-10-21T16:24:24.169Z,14.20
2022-10-21T16:26:51.527Z,10.83
2022-10-21T16:29:20.635Z,11.90
2022-10-21T16:31:48.402Z,11.73
2022-10-21T16:34:15.861Z,11.53
2022-10-21T16:36:43.592Z,11.10
2022-10-21T16:39:18.242Z,11.67
2022-10-21T16:41:45.834Z,11.70
2022-10-21T16:44:13.204Z,10.13
2022-10-21T16:46:41.993Z,10.20
2022-10-21T16:49:14.462Z,11.00
2022-10-21T16:51:42.830Z,11.43
2022-10-21T16:54:10.932Z,11.73
2022-10-21T16:56:38.301Z,15.47
2022-10-21T16:59:05.810Z,11.57
2022-10-21T17:01:33.304Z,11.70
2022-10-21T17:04:00.670Z,10.97
2022-10-21T17:06:28.399Z,12.30
2022-10-21T17:08:56.575Z,10.27
2022-10-21T17:11:27.034Z,11.83
2022-10-21T17:13:54.400Z,10.63
2022-10-21T17:16:21.826Z,15.43
2022-10-21T17:18:49.441Z,15.13
2022-10-21T17:21:24.338Z,16.50
2022-10-21T17:23:53.855Z,12.60
2022-10-21T17:26:21.505Z,11.33
2022-10-21T17:28:49.157Z,10.43
2022-10-21T17:31:23.688Z,12.40
2022-10-21T17:33:51.825Z,11.87
2022-10-21T17:36:19.579Z,12.47
2022-10-21T17:38:47.157Z,14.97
2022-10-21T17:41:15.400Z,11.17
2022-10-21T17:43:42.928Z,11.57
2022-10-21T17:46:16.203Z,13.30
2022-10-21T17:48:43.572Z,12.20
2022-10-21T17:51:10.947Z,11.57
2022-10-21T17:53:38.419Z,11.70
2022-10-21T17:56:07.351Z,12.07
2022-10-21T17:58:34.942Z,13.43
2022-10-21T18:01:07.399Z,13.43
2022-10-21T18:03:35.023Z,15.17
2022-10-21T18:06:05.481Z,15.30
2022-10-21T18:08:32.924Z,14.50
2022-10-21T18:11:02.085Z,11.70
2022-10-21T18:13:30.667Z,12.50
2022-10-21T18:16:03.490Z,15.00
2022-10-21T18:18:30.884Z,13.77
2022-10-21T18:21:05.530Z,13.17
2022-10-21T18:23:32.937Z,12.20
2022-10-21T18:26:04.929Z,12.63
2022-10-21T18:28:33.971Z,12.83
2022-10-21T18:31:02.059Z,13.97
2022-10-21T18:33:29.751Z,12.40
2022-10-21T18:35:57.302Z,11.97
2022-10-21T18:38:24.687Z,10.83
2022-10-21T18:41:01.872Z,12.17
2022-10-21T18:43:29.786Z,11.97
2022-10-21T18:45:57.191Z,13.07
2022-10-21T18:48:24.644Z,10.20
2022-10-21T18:50:51.977Z,9.77
2022-10-21T18:53:19.327Z,12.20
2022-10-21T18:55:46.666Z,10.73
2022-10-21T18:58:14.349Z,11.80
2022-10-21T19:00:41.727Z,12.10
2022-10-21T19:03:09.041Z,12.23
2022-10-21T19:05:36.541Z,10.43
2022-10-21T19:08:03.924Z,13.47
2022-10-21T19:10:31.330Z,12.53
2022-10-21T19:12:58.745Z,14.97
2022-10-21T19:15:26.068Z,11.90
2022-10-21T19:17:53.468Z,12.93
2022-10-21T19:20:20.821Z,13.67
2022-10-21T19:22:48.268Z,11.37
2022-10-21T19:25:15.642Z,13.20
2022-10-21T19:27:43.072Z,10.97
2022-10-21T19:30:10.760Z,10.70
2022-10-21T19:32:38.392Z,13.47
2022-10-21T19:35:06.082Z,12.47
2022-10-21T19:37:35.035Z,11.60
2022-10-21T19:40:02.423Z,12.80
2022-10-21T19:42:29.810Z,12.57
2022-10-21T19:44:57.172Z,13.07
2022-10-21T19:47:24.603Z,12.03
2022-10-21T19:49:51.936Z,11.67
2022-10-21T19:52:19.249Z,11.70
2022-10-21T19:54:46.743Z,11.33
2022-10-21T19:57:14.063Z,12.90
2022-10-21T19:59:41.408Z,14.77
2022-10-21T20:02:09.923Z,13.17
2022-10-21T20:04:37.306Z,13.93
2022-10-21T20:07:04.798Z,12.97
2022-10-21T20:09:35.009Z,11.80
2022-10-21T20:12:05.406Z,11.73
2022-10-21T20:14:32.732Z,12.03
2022-10-21T20:17:00.122Z,12.43
2022-10-21T20:19:27.496Z,12.80
2022-10-21T20:21:54.956Z,13.40
2022-10-21T20:24:22.336Z,11.03
2022-10-21T20:26:51.407Z,11.10
2022-10-21T20:29:19.077Z,12.43
2022-10-21T20:31:46.660Z,10.90
2022-10-21T20:34:14.372Z,12.70
2022-10-21T20:36:41.794Z,11.47
2022-10-21T20:39:10.463Z,14.73
2022-10-21T20:41:38.638Z,15.17
2022-10-21T20:44:09.600Z,12.77
2022-10-21T20:46:37.208Z,16.70
2022-10-21T20:49:05.564Z,15.33
2022-10-21T20:51:33.030Z,19.83
2022-10-21T20:54:01.471Z,17.83
2022-10-21T20:56:29.683Z,23.07
2022-10-21T20:58:57.561Z,19.33
2022-10-21T21:01:26.430Z,17.77
2022-10-21T21:03:54.852Z,19.07
2022-10-21T21:06:23.638Z,15.30
2022-10-21T21:09:14.714Z,15.10
2022-10-21T21:11:38.391Z,13.40
2022-10-21T21:14:05.783Z,11.80
2022-10-21T21:16:33.109Z,15.27
2022-10-21T21:19:04.645Z,14.53
2022-10-21T21:21:33.230Z,32.27
2022-10-21T21:24:00.904Z,14.37
2022-10-21T21:26:32.654Z,25.30
2022-10-21T21:29:00.639Z,23.77
2022-10-21T21:31:28.700Z,15.27
2022-10-21T21:33:56.340Z,36.87
2022-10-21T21:36:23.981Z,20.63
2022-10-21T21:38:52.474Z,17.20
2022-10-21T21:41:19.866Z,13.97
2022-10-21T21:43:48.343Z,11.63
2022-10-21T21:46:22.815Z,12.50
2022-10-21T21:48:56.050Z,13.50
2022-10-21T21:51:26.588Z,13.13
2022-10-21T21:53:54.438Z,12.13
2022-10-21T21:56:22.414Z,12.07
2022-10-21T21:58:50.702Z,14.13
2022-10-21T22:01:22.984Z,12.13
2022-10-21T22:03:51.930Z,12.93
2022-10-21T22:06:20.215Z,13.87
2022-10-21T22:08:47.786Z,14.30
2022-10-21T22:11:16.586Z,20.50
2022-10-21T22:13:43.971Z,23.13
2022-10-21T22:16:13.541Z,64.27
2022-10-21T22:18:41.033Z,34.80
2022-10-21T22:21:09.651Z,30.27
2022-10-21T22:23:37.855Z,18.97
2022-10-21T22:26:05.488Z,20.77
2022-10-21T22:28:32.983Z,24.03
2022-10-21T22:31:04.560Z,23.70
2022-10-21T22:33:32.492Z,17.17
2022-10-21T22:35:59.941Z,13.67
2022-10-21T22:38:29.215Z,13.57
2022-10-21T22:40:57.699Z,14.57
2022-10-21T22:43:26.292Z,17.20
2022-10-21T22:46:01.154Z,12.67
2022-10-21T22:48:41.930Z,13.97
2022-10-21T22:51:09.293Z,12.33
2022-10-21T22:53:36.828Z,12.40
2022-10-21T22:56:04.434Z,17.43
2022-10-21T22:58:31.754Z,25.50
2022-10-21T23:00:59.662Z,25.57
2022-10-21T23:03:27.018Z,34.80
2022-10-21T23:05:54.452Z,35.97
2022-10-21T23:08:21.939Z,33.43
2022-10-21T23:10:49.579Z,24.33
2022-10-21T23:13:17.115Z,18.10
2022-10-21T23:15:45.032Z,18.20
2022-10-21T23:18:12.389Z,14.73
2022-10-21T23:20:39.752Z,17.30
2022-10-21T23:23:07.154Z,14.77
2022-10-21T23:25:34.556Z,18.33
2022-10-21T23:28:01.908Z,24.23
2022-10-21T23:30:29.249Z,17.03
2022-10-21T23:32:56.535Z,18.13
2022-10-21T23:35:23.911Z,17.43
2022-10-21T23:37:51.864Z,16.23
2022-10-21T23:40:19.238Z,23.87
2022-10-21T23:42:46.596Z,20.50
2022-10-21T23:45:14.007Z,16.33
2022-10-21T23:47:41.674Z,14.33
2022-10-21T23:50:10.190Z,13.13
2022-10-21T23:52:38.197Z,15.00
2022-10-21T23:55:09.188Z,17.47
2022-10-21T23:57:36.588Z,15.60
